AirNav   Everest Fuels
 
 1505 users online  

0ID0 South Fork Ranch Airport
Featherville, Idaho, USA

GOING TO FEATHERVILLE?


FAA INFORMATION EFFECTIVE 13 AUGUST 2020

Location

FAA Identifier: 0ID0
Lat/Long: 43-36-23.2200N 115-06-26.1000W
43-36.387000N 115-06.435000W
43.6064500,-115.1072500
(estimated)
Elevation: 4861 ft. / 1482 m (estimated)
From city: 8 miles W of FEATHERVILLE, ID
Time zone: UTC -6 (UTC -7 during Standard Time)
Zip code: 83327

Airport Operations

Airport use: Private use. Permission required prior to landing
Activation date: 06/2006
Control tower: no
ARTCC: SALT LAKE CITY CENTER
FSS: BOISE FLIGHT SERVICE STATION
Attendance: UNATNDD
Wind indicator: yes
Segmented circle: yes

Airport Services

Runway Information

Runway 7/25

Dimensions: 3000 x 80 ft. / 914 x 24 m
Surface: turf
RUNWAY 7  RUNWAY 25
Traffic pattern: leftleft

Airport Ownership and Management from official FAA records

Ownership: Privately-owned
Owner: SOUTH FORK HOMEOWNERS ASSN.
1495 E SALESYARD RD.
EMMETT, ID 83617
Phone 208-939-4314
Manager: STEVE BURAK
1495 E SALESYARD RD.
EMMETT, ID 83617
Phone 208-939-4314

Additional Remarks

FOR CD CTC SALT LAKE ARTCC AT 801-320-2568.

Instrument Procedures

There are no published instrument procedures at 0ID0.

Some nearby airports with instrument procedures:

KSUN - Friedman Memorial Airport (36 nm E)
U76 - Mountain Home Municipal Airport (39 nm SW)
KGNG - Gooding Municipal Airport (44 nm S)
KMUO - Mountain Home Air Force Base (47 nm SW)
KBOI - Boise Air Terminal/Gowen Field (49 nm W)
 
Loc | Ops | Rwys | IFR | FBO | Links
Com | Nav | Svcs | Stats | Notes
Area around 0ID0 (South Fork Ranch Airport)
 
Road maps at: MapQuest Bing Google
 
Aerial photo
No photo
 
Sectional chart

 
Airport distance calculator
Flying to South Fork Ranch Airport? Find the distance to fly.

From to 0ID0

Sunrise and sunset
Times for 13-Aug-2020
 Local
(UTC-6)
 Zulu
(UTC)
Morning civil twilight06:1412:14
Sunrise06:4512:45
Sunset20:4502:45
Evening civil twilight21:1603:16

Current date and time
Zulu (UTC)  13-Aug-2020 16:52:59
Local (UTC-6)  13-Aug-2020 10:52:59
 
METAR
KSNT 
34nm N 
131551Z AUTO VRB03KT 12/02 A3020 RMK AO1 SLP144 T01170022
KSUN 
36nm E 
131550Z 00000KT 10SM FEW140 19/05 A3016
KMUO 
48nm SW 
131558Z AUTO 31004KT 10SM CLR 20/02 A3006 RMK AO2 SLP159 T02040022 $
KBOI 
49nm W 
131553Z 00000KT 8SM CLR 19/05 A3007 RMK AO2 SLP156 T01890050
TAF
KSUN 
36nm E 
131120Z 1312/1418 32007KT P6SM FEW120 FM131700 18010G19KT P6SM SKC FM132100 23012G20KT P6SM SKC FM140200 29009KT P6SM SKC FM140400 31007KT P6SM SKC AMD LTD TO CLD VIS AND WIND TIL 131400
NOTAMs
Click for the latest NOTAMs
NOTAMs are issued by the DoD/FAA and will open in a separate window not controlled by AirNav.

 

 
 

Would you like to see your business listed on this page?

 If your business provides an interesting product or service to pilots, flight crews, aircraft, or users of the South Fork Ranch Airport, you should consider listing it here.  To start the listing process, click on the button below
 
Add a business
 

Other Pages about South Fork Ranch Airport

Update a link
 
Copyright © AirNav, LLC. All rights reserved. Privacy Policy  Contact